Forum - METEO

POST X METEO

Amministratore
F.ranco52 09/10/2021 ore 08:56 Quota

(nessuno) Nowcastin Sabato 9 Ottobre 2021

Buongiorno e Buon Week End tutti





Notizie Meteo dell'Italia da il Meteo .It


http://ilMeteo.It


la Situazione Italiana vista dal Sat









il Radar Europeo










Brindisi

METAR LIBR 090520Z 28007KT 9999 VCSH FEW010CB SCT020 16/14 Q1012=

METAR di Brindisi del 9 alle 5,20z

Vento da 280° W NW 7 nodi (12,962 km) Visibilitā 10000 m
Nelle Vicinanze Rovescio di Pioggia
Copertura 1-2 ottavi da 1000 piedi (304,8 m) , Cumulonembi
Copertura 3-4 ottavi da 2000 piedi (609,6 m)
Temp 16°C Dew 14°C Ur 87% hPa 1012

Brindisi

TAF LIBR 090500Z 0906/1006 VRB05KT 9999 SCT020 BKN060 TEMPO 0906/0912 TSRA BECMG 0908/0910 02012KT BECMG 0916/0918 VRB05KT BECMG 1000/1002 30010KT TEMPO 1000/1006 TSRA=

le TAF di Brindisi delle 5z Previsioni dale 6z alle 6z del 10

Vento Variabile 5 nodi (9,26 km) Visibilitā 10000 m
Copertura 3-4 ottavi da 2000 piedi (609,6 m)
Copertura 5-7 ottavi da 6000 piedi (1828,8 m)
il Tempo Varierā dalle 6z alle 12z
Temporali di Pioggia
le Condizioni Diverranno fra le 8z e le 10z
Vento da 20° N NE 12 nodi (22,224 km)
le Condizioni Diverranno fra le 16z e le 18z
Vento Variabile 5 nodi (9,26 k)
le Condizioni Diverranno il 10 fra le 00z e le 02z
Vento da 300° W NW 10 nodi (18,52 km)
il Tempo Varierā il 10 dalle 00z alle 06z
Temporali di Pioggia


Gioia del Colle

METAR LIBV 090455Z 35005KT 5000 BR FEW002 14/14 Q1012 RMK FEW VIS MIN 3000SE WIND THR32 36005KT WIND THR14 35007KT YLO=

MERAR di Gioia del Colle del 9 alle 4,55z

Vento da 350° N NW 5 nodi (9,26 km) Visibilitā 5000 m , Foschia
Copertura 1-2 ottavi da 200 piedi (60,96 m)
Temp 14°C Dew 14°C Ur 100% hPa 1012
Nuvoliositā 1-2 ottavi
Visibilitā Minima 3000 m

Gioia del Colle

TAF LIBV 090500Z 0906/0915 VRB05KT 5000 BR FEW005 BECMG 0906/0908 36012KT 9999 SCT020 BKN050 TEMPO 0911/0915 5000 TSRA SCT015 FEW020CB BKN035=

le TAF di Gioia del Colle delle 5z Previsioni dalle 6z alle 15z

Vento Variabile 5 nodi (9,26 km) Visibilitā 5000 m , Foschia
Copertura 1-2 ottavi da 500 piedi 152,4 m)
le Condizioni Diverranno fra le 6z e le 8z
Vento da 360° N 12 nodi (22,224 k) Visbilitā 10000 m
Copertura 3-4 ottavi da 2000 piedi (609,6 m)
Copertura 5-7 ottavi da 5000 piedi (1524 m)
il Temp Varierrā dalle 11z alle 15z
Visibilitā 5000 m , Temporali di Pioggia
Copertura 3-4 ottavi da 1500 piedi (457,2 m)
Copertura 1-2 ottavi da 2000 piedi (609,6 m) , Cumulonembi
Copertura 5-7 ottavi da 3500 piedi (1066,8 m)
2742974
Buongiorno e Buon Week End tutti Notizie Meteo dell'Italia da il Meteo .It http://ilMeteo.It la Situazione Italiana vista dal Sat...
Discussione
09/10/2021 08:56:41
none
  • mi piace
    iLikeIt
    PublicVote

Vuoi partecipare anche tu a questa discussione?

Rispondi per lasciare il tuo messaggio in questa discussione